createdAt,value
2022-12-27T00:10:21.456Z,4.11
2022-12-27T00:22:21.945Z,4.23
2022-12-27T00:34:22.373Z,4.49
2022-12-27T00:46:22.855Z,4.35
2022-12-27T00:58:23.296Z,4.29
2022-12-27T01:10:23.758Z,4.23
2022-12-27T01:22:24.202Z,4.18
2022-12-27T01:34:24.632Z,4.08
2022-12-27T01:46:25.095Z,4.25
2022-12-27T01:58:25.586Z,4.02
2022-12-27T02:10:26.005Z,4.10
2022-12-27T02:22:26.472Z,4.05
2022-12-27T02:34:26.916Z,3.68
2022-12-27T02:46:27.392Z,3.82
2022-12-27T02:58:27.826Z,3.81
2022-12-27T03:10:28.279Z,3.35
2022-12-27T03:22:28.721Z,3.01
2022-12-27T03:34:29.206Z,2.70
2022-12-27T03:46:29.666Z,2.10
2022-12-27T03:58:30.063Z,2.11
2022-12-27T04:10:30.524Z,1.99
2022-12-27T04:22:31.026Z,1.71
2022-12-27T04:34:31.420Z,1.38
2022-12-27T04:46:31.929Z,1.05
2022-12-27T04:58:32.337Z,0.87
2022-12-27T05:10:32.794Z,1.30
2022-12-27T05:22:33.250Z,0.45
2022-12-27T05:34:33.666Z,0.54
2022-12-27T05:46:34.155Z,0.36
2022-12-27T05:58:34.628Z,0.28
2022-12-27T06:10:35.055Z,0.28
2022-12-27T06:22:35.519Z,0.01
2022-12-27T06:34:35.940Z,-0.30
2022-12-27T06:46:36.456Z,-0.29
2022-12-27T06:58:36.821Z,-0.11
2022-12-27T07:10:37.329Z,0.10
2022-12-27T07:22:37.777Z,0.21
2022-12-27T07:34:38.244Z,0.03
2022-12-27T07:46:38.673Z,0.27
2022-12-27T07:58:39.137Z,0.21
2022-12-27T08:10:39.584Z,0.49
2022-12-27T08:22:40.065Z,0.87
2022-12-27T08:34:40.532Z,1.65
2022-12-27T08:46:40.975Z,4.91
2022-12-27T08:58:41.395Z,9.48
2022-12-27T09:10:41.845Z,9.65
2022-12-27T09:22:42.292Z,9.55
2022-12-27T09:34:42.750Z,9.18
2022-12-27T09:46:43.274Z,9.64
2022-12-27T09:58:43.703Z,9.38
2022-12-27T10:10:44.107Z,9.20
2022-12-27T10:22:44.554Z,9.51
2022-12-27T10:34:44.984Z,9.37
2022-12-27T10:46:45.605Z,9.47
2022-12-27T10:58:45.940Z,9.44
2022-12-27T11:10:46.353Z,9.71
2022-12-27T11:22:46.843Z,9.44
2022-12-27T11:34:47.314Z,9.38
2022-12-27T11:46:47.814Z,9.53
2022-12-27T11:58:48.191Z,9.56
2022-12-27T12:10:48.658Z,9.65
2022-12-27T12:22:49.097Z,9.55
2022-12-27T12:34:49.540Z,9.43
2022-12-27T12:46:49.997Z,9.21
2022-12-27T12:58:50.487Z,9.18
2022-12-27T13:10:50.967Z,9.25
2022-12-27T13:22:51.360Z,9.13
2022-12-27T13:34:51.813Z,8.85
2022-12-27T13:46:52.286Z,7.70
2022-12-27T13:58:57.742Z,7.19
2022-12-27T14:11:00.471Z,8.47
2022-12-27T14:22:54.436Z,6.48
2022-12-27T14:34:59.055Z,5.53
2022-12-27T14:46:54.620Z,5.23
2022-12-27T14:58:55.012Z,4.76
2022-12-27T15:10:55.419Z,3.80
2022-12-27T15:22:55.904Z,3.44
2022-12-27T15:34:56.553Z,2.64
2022-12-27T15:46:56.830Z,3.12
2022-12-27T15:58:57.228Z,2.29
2022-12-27T16:10:57.695Z,2.21
2022-12-27T16:22:58.208Z,1.89
2022-12-27T16:28:58.194Z,1.33
2022-12-27T16:34:58.192Z,1.75
2022-12-27T16:46:58.631Z,1.92
2022-12-27T16:52:58.566Z,1.44
2022-12-27T16:58:58.599Z,1.20
2022-12-27T17:10:59.033Z,1.03
2022-12-27T17:22:59.522Z,1.01
2022-12-27T17:28:59.459Z,0.13
2022-12-27T17:34:59.503Z,0.46
2022-12-27T17:46:59.996Z,0.87
2022-12-27T17:52:59.953Z,0.89
2022-12-27T17:59:00.019Z,0.59
2022-12-27T18:11:00.415Z,-0.52
2022-12-27T18:17:00.411Z,-0.28
2022-12-27T18:23:00.440Z,0.47
2022-12-27T18:29:00.384Z,-0.10
2022-12-27T18:35:07.358Z,-0.44
2022-12-27T18:41:07.363Z,0.19
2022-12-27T18:47:07.380Z,-0.93
2022-12-27T18:53:07.375Z,-0.79
2022-12-27T18:59:07.391Z,-0.81
2022-12-27T19:11:11.000Z,-0.64
2022-12-27T19:17:11.547Z,-0.71
2022-12-27T19:23:11.019Z,-0.49
2022-12-27T19:29:10.983Z,-0.65
2022-12-27T19:35:18.304Z,-0.14
2022-12-27T19:41:18.427Z,-0.50
2022-12-27T19:47:18.418Z,-1.24
2022-12-27T19:53:18.457Z,-1.18
2022-12-27T19:59:18.463Z,-0.98
2022-12-27T20:05:18.651Z,-0.80
2022-12-27T20:11:18.468Z,-1.08
2022-12-27T20:23:18.912Z,-0.71
2022-12-27T20:35:19.391Z,-0.73
2022-12-27T20:41:19.428Z,-0.63
2022-12-27T20:47:19.398Z,-0.95
2022-12-27T20:59:19.869Z,-0.93
2022-12-27T21:11:20.313Z,0.09
2022-12-27T21:23:20.774Z,3.10
2022-12-27T21:35:21.192Z,3.21
2022-12-27T21:47:21.599Z,3.07
2022-12-27T21:59:22.113Z,3.09
2022-12-27T22:11:22.559Z,2.73
2022-12-27T22:23:23.049Z,2.68
